Back to Top

Language: 

My Weather Underground Personal Weather Station Historical Data with Graphs...

Delerius Weather Station Historical Data
Daily Summary for September 12, 2017 Units:  English    Metric   Both
« Previous Day
Next Day »
Daily Weekly Monthly Yearly Custom
  High: Low: Average:
Temperature: 61.0 °F 51.4 °F 55.4 °F
Dew Point: 51.8 °F 47.4 °F 49.2 °F
Humidity: 96 % 63 % 80 %
Wind Speed: 16.0 mph 3.0 mph 9.7 mph
Wind Gust: 30.0 mph - -
Wind:- - WSW
Pressure: 29.63 in 29.14 in -
Precipitation: 0.11 in    
Historical Graphs
 
 
Tabular Data for September 12, 2017
Time Temperature Dew Point Pressure Wind Wind Speed Wind Gust Humidity Rainfall Rate (Hourly) solar Conditions
00:00 53.4 °F 48.7 °F 29.44 in West 11.0 mph 20.0 mph 84 % 0.00 in 0 W/m2
00:05 53.4 °F 48.7 °F 29.44 in West 11.0 mph 23.0 mph 84 % 0.00 in 0 W/m2
00:10 53.4 °F 48.7 °F 29.44 in West 12.0 mph 23.0 mph 84 % 0.00 in 0 W/m2
00:15 53.4 °F 48.7 °F 29.44 in WNW 12.0 mph 21.0 mph 84 % 0.00 in 0 W/m2
00:20 53.2 °F 48.5 °F 29.44 in WNW 11.0 mph 20.0 mph 84 % 0.00 in 0 W/m2
00:25 53.2 °F 48.5 °F 29.45 in WNW 10.0 mph 19.0 mph 84 % 0.00 in 0 W/m2
00:30 53.2 °F 48.5 °F 29.44 in WNW 10.0 mph 20.0 mph 84 % 0.00 in 0 W/m2
00:35 53.1 °F 48.4 °F 29.44 in WNW 9.0 mph 20.0 mph 84 % 0.00 in 0 W/m2
00:40 53.1 °F 48.4 °F 29.44 in West 10.0 mph 21.0 mph 84 % 0.00 in 0 W/m2
00:45 53.1 °F 48.0 °F 29.44 in WNW 11.0 mph 23.0 mph 83 % 0.00 in 0 W/m2
00:50 53.1 °F 48.0 °F 29.44 in WNW 11.0 mph 23.0 mph 83 % 0.00 in 0 W/m2
00:55 53.1 °F 48.0 °F 29.44 in WNW 9.0 mph 18.0 mph 83 % 0.00 in 0 W/m2
01:00 52.9 °F 47.9 °F 29.44 in WNW 10.0 mph 18.0 mph 83 % 0.00 in 0 W/m2
01:05 52.9 °F 48.2 °F 29.44 in WNW 10.0 mph 19.0 mph 84 % 0.00 in 0 W/m2
01:10 52.9 °F 48.2 °F 29.45 in WNW 9.0 mph 19.0 mph 84 % 0.00 in 0 W/m2
01:15 52.9 °F 48.5 °F 29.45 in WNW 9.0 mph 19.0 mph 85 % 0.00 in 0 W/m2
01:20 52.9 °F 48.8 °F 29.45 in WNW 9.0 mph 19.0 mph 86 % 0.00 in 0 W/m2
01:25 52.9 °F 48.8 °F 29.45 in WNW 9.0 mph 18.0 mph 86 % 0.00 in 0 W/m2
01:30 52.9 °F 48.8 °F 29.46 in WNW 9.0 mph 18.0 mph 86 % 0.00 in 0 W/m2
01:35 52.9 °F 48.8 °F 29.46 in West 8.0 mph 18.0 mph 86 % 0.00 in 0 W/m2
01:40 52.9 °F 48.8 °F 29.46 in West 9.0 mph 19.0 mph 86 % 0.00 in 0 W/m2
01:45 53.1 °F 48.7 °F 29.46 in West 10.0 mph 19.0 mph 85 % 0.00 in 0 W/m2
01:50 53.1 °F 48.7 °F 29.46 in West 10.0 mph 19.0 mph 85 % 0.00 in 0 W/m2
01:55 53.1 °F 49.0 °F 29.46 in West 10.0 mph 20.0 mph 86 % 0.00 in 0 W/m2
02:00 53.1 °F 49.0 °F 29.46 in WNW 9.0 mph 20.0 mph 86 % 0.00 in 0 W/m2
02:10 52.9 °F 48.8 °F 29.46 in WNW 8.0 mph 15.0 mph 86 % 0.00 in 0 W/m2
02:15 52.9 °F 49.1 °F 29.47 in WNW 9.0 mph 18.0 mph 87 % 0.00 in 0 W/m2
02:20 52.9 °F 48.8 °F 29.47 in WNW 9.0 mph 18.0 mph 86 % 0.00 in 0 W/m2
02:25 52.9 °F 48.8 °F 29.47 in West 10.0 mph 19.0 mph 86 % 0.00 in 0 W/m2
02:30 52.9 °F 48.8 °F 29.47 in West 11.0 mph 20.0 mph 86 % 0.00 in 0 W/m2
02:35 53.1 °F 49.0 °F 29.47 in West 11.0 mph 20.0 mph 86 % 0.00 in 0 W/m2
02:40 53.1 °F 49.0 °F 29.48 in West 11.0 mph 20.0 mph 86 % 0.00 in 0 W/m2
02:45 53.1 °F 48.7 °F 29.48 in West 13.0 mph 23.0 mph 85 % 0.00 in 0 W/m2
02:50 53.1 °F 48.7 °F 29.48 in West 12.0 mph 23.0 mph 85 % 0.00 in 0 W/m2
02:55 52.9 °F 48.5 °F 29.48 in WNW 10.0 mph 16.0 mph 85 % 0.00 in 0 W/m2
03:00 52.9 °F 48.5 °F 29.48 in WNW 10.0 mph 15.0 mph 85 % 0.00 in 0 W/m2
03:05 52.9 °F 48.5 °F 29.48 in WNW 9.0 mph 18.0 mph 85 % 0.00 in 0 W/m2
03:10 52.9 °F 48.5 °F 29.49 in West 9.0 mph 18.0 mph 85 % 0.00 in 0 W/m2
03:15 52.7 °F 48.3 °F 29.49 in West 9.0 mph 18.0 mph 85 % 0.00 in 0 W/m2
03:20 52.7 °F 48.3 °F 29.49 in West 9.0 mph 16.0 mph 85 % 0.00 in 0 W/m2
03:25 52.7 °F 48.3 °F 29.49 in West 10.0 mph 22.0 mph 85 % 0.00 in 0 W/m2
03:30 52.5 °F 48.1 °F 29.49 in West 11.0 mph 22.0 mph 85 % 0.00 in 0 W/m2
03:35 52.5 °F 48.1 °F 29.49 in West 11.0 mph 19.0 mph 85 % 0.00 in 0 W/m2
03:40 52.7 °F 48.6 °F 29.49 in West 11.0 mph 22.0 mph 86 % 0.00 in 0 W/m2
03:45 52.9 °F 48.8 °F 29.49 in West 13.0 mph 27.0 mph 86 % 0.00 in 0 W/m2
03:50 52.9 °F 48.8 °F 29.49 in West 16.0 mph 30.0 mph 86 % 0.00 in 0 W/m2
03:55 52.9 °F 48.5 °F 29.50 in West 15.0 mph 30.0 mph 85 % 0.00 in 0 W/m2
04:00 52.9 °F 48.5 °F 29.50 in West 13.0 mph 24.0 mph 85 % 0.00 in 0 W/m2
04:05 53.1 °F 49.0 °F 29.50 in West 13.0 mph 26.0 mph 86 % 0.00 in 0 W/m2
04:10 53.1 °F 49.0 °F 29.50 in WNW 13.0 mph 26.0 mph 86 % 0.00 in 0 W/m2
04:15 52.9 °F 49.1 °F 29.50 in WNW 13.0 mph 23.0 mph 87 % 0.00 in 0 W/m2
04:20 52.5 °F 48.8 °F 29.50 in WNW 12.0 mph 23.0 mph 87 % 0.00 in 0 W/m2
04:21 52.5 °F 49.1 °F 29.50 in WNW 12.0 mph 22.0 mph 88 % 0.00 in 0 W/m2
04:25 52.5 °F 49.1 °F 29.50 in WNW 10.0 mph 19.0 mph 88 % 0.00 in 0 W/m2
04:31 52.3 °F 48.9 °F 29.50 in West 10.0 mph 24.0 mph 88 % 0.00 in 0 W/m2
04:36 52.3 °F 49.2 °F 29.50 in West 11.0 mph 24.0 mph 89 % 0.00 in 0 W/m2
04:41 52.2 °F 48.7 °F 29.50 in West 10.0 mph 24.0 mph 88 % 0.00 in 0 W/m2
04:46 52.2 °F 48.7 °F 29.50 in West 10.0 mph 20.0 mph 88 % 0.00 in 0 W/m2
04:51 52.2 °F 49.0 °F 29.50 in West 10.0 mph 20.0 mph 89 % 0.00 in 0 W/m2
04:56 52.2 °F 49.0 °F 29.50 in West 11.0 mph 20.0 mph 89 % 0.00 in 0 W/m2
05:01 52.3 °F 48.9 °F 29.50 in West 13.0 mph 20.0 mph 88 % 0.00 in 0 W/m2
05:06 52.3 °F 48.9 °F 29.50 in West 14.0 mph 24.0 mph 88 % 0.00 in 0 W/m2
05:11 52.3 °F 48.9 °F 29.51 in West 14.0 mph 24.0 mph 88 % 0.00 in 0 W/m2
05:16 52.3 °F 48.9 °F 29.51 in West 13.0 mph 23.0 mph 88 % 0.00 in 0 W/m2
05:21 52.2 °F 48.7 °F 29.51 in West 12.0 mph 22.0 mph 88 % 0.00 in 0 W/m2
05:26 52.2 °F 48.7 °F 29.51 in WNW 13.0 mph 24.0 mph 88 % 0.00 in 0 W/m2
05:31 52.3 °F 48.9 °F 29.51 in WNW 13.0 mph 24.0 mph 88 % 0.00 in 0 W/m2
05:36 52.3 °F 48.9 °F 29.51 in WNW 13.0 mph 21.0 mph 88 % 0.00 in 0 W/m2
05:39 52.3 °F 48.9 °F 29.51 in WNW 13.0 mph 21.0 mph 88 % 0.00 in 0 W/m2
05:44 52.3 °F 48.9 °F 29.51 in WNW 13.0 mph 25.0 mph 88 % 0.00 in 0 W/m2
05:49 52.3 °F 48.9 °F 29.52 in WNW 12.0 mph 25.0 mph 88 % 0.00 in 0 W/m2
05:54 52.3 °F 48.6 °F 29.52 in WNW 13.0 mph 26.0 mph 87 % 0.00 in 0 W/m2
05:59 52.3 °F 48.3 °F 29.52 in WNW 13.0 mph 26.0 mph 86 % 0.00 in 0 W/m2
06:04 52.3 °F 48.3 °F 29.52 in WNW 13.0 mph 29.0 mph 86 % 0.00 in 0 W/m2
06:09 52.3 °F 48.3 °F 29.52 in WNW 14.0 mph 29.0 mph 86 % 0.00 in 0 W/m2
06:14 52.3 °F 48.3 °F 29.52 in WNW 14.0 mph 29.0 mph 86 % 0.00 in 0 W/m2
06:19 52.3 °F 48.3 °F 29.52 in WNW 15.0 mph 29.0 mph 86 % 0.00 in 0 W/m2
06:24 52.3 °F 48.3 °F 29.52 in WNW 14.0 mph 27.0 mph 86 % 0.00 in 0 W/m2
06:29 52.2 °F 48.1 °F 29.52 in West 13.0 mph 25.0 mph 86 % 0.00 in 0 W/m2
06:34 52.2 °F 48.1 °F 29.53 in West 13.0 mph 25.0 mph 86 % 0.00 in 5 W/m2
06:39 52.2 °F 48.1 °F 29.53 in West 12.0 mph 24.0 mph 86 % 0.00 in 7 W/m2
06:44 52.2 °F 48.1 °F 29.53 in WNW 11.0 mph 23.0 mph 86 % 0.00 in 9 W/m2
06:49 52.2 °F 47.8 °F 29.53 in WNW 12.0 mph 24.0 mph 85 % 0.00 in 11 W/m2
06:54 52.2 °F 47.8 °F 29.53 in WNW 13.0 mph 24.0 mph 85 % 0.00 in 14 W/m2
06:59 52.2 °F 47.8 °F 29.54 in WNW 12.0 mph 23.0 mph 85 % 0.00 in 16 W/m2
07:04 52.2 °F 47.8 °F 29.54 in WNW 11.0 mph 23.0 mph 85 % 0.00 in 19 W/m2
07:09 52.2 °F 47.8 °F 29.54 in WNW 12.0 mph 23.0 mph 85 % 0.00 in 23 W/m2
07:14 52.3 °F 48.0 °F 29.54 in WNW 13.0 mph 24.0 mph 85 % 0.00 in 25 W/m2
07:19 52.5 °F 48.1 °F 29.54 in WNW 14.0 mph 25.0 mph 85 % 0.00 in 26 W/m2
07:24 52.5 °F 48.1 °F 29.54 in WNW 13.0 mph 25.0 mph 85 % 0.00 in 79 W/m2
07:29 52.5 °F 48.1 °F 29.54 in WNW 11.0 mph 21.0 mph 85 % 0.00 in 30 W/m2
07:34 52.7 °F 48.3 °F 29.55 in WNW 11.0 mph 20.0 mph 85 % 0.00 in 33 W/m2
07:39 52.9 °F 48.5 °F 29.55 in WNW 13.0 mph 26.0 mph 85 % 0.00 in 35 W/m2
07:44 52.9 °F 48.5 °F 29.55 in WNW 13.0 mph 26.0 mph 85 % 0.00 in 39 W/m2
07:49 53.1 °F 48.4 °F 29.55 in WNW 10.0 mph 19.0 mph 84 % 0.00 in 42 W/m2
07:54 53.2 °F 48.5 °F 29.55 in WNW 10.0 mph 22.0 mph 84 % 0.00 in 51 W/m2
07:59 53.4 °F 48.7 °F 29.56 in WNW 12.0 mph 22.0 mph 84 % 0.00 in 132 W/m2
08:04 54.0 °F 49.2 °F 29.56 in WNW 12.0 mph 22.0 mph 84 % 0.00 in 197 W/m2
08:09 54.3 °F 49.3 °F 29.56 in WNW 12.0 mph 22.0 mph 83 % 0.00 in 216 W/m2
08:10 54.3 °F 49.3 °F 29.56 in WNW 12.0 mph 22.0 mph 83 % 0.00 in 216 W/m2
08:15 54.7 °F 49.3 °F 29.56 in WNW 11.0 mph 19.0 mph 82 % 0.00 in 225 W/m2
08:20 54.9 °F 49.5 °F 29.57 in WNW 11.0 mph 22.0 mph 82 % 0.00 in 232 W/m2
08:25 55.0 °F 49.3 °F 29.56 in WNW 12.0 mph 22.0 mph 81 % 0.00 in 241 W/m2
08:30 55.2 °F 49.5 °F 29.57 in WNW 12.0 mph 21.0 mph 81 % 0.00 in 255 W/m2
08:35 55.6 °F 49.8 °F 29.57 in WNW 13.0 mph 22.0 mph 81 % 0.00 in 271 W/m2
08:40 55.8 °F 49.7 °F 29.57 in WNW 13.0 mph 23.0 mph 80 % 0.00 in 279 W/m2
08:45 55.8 °F 49.3 °F 29.57 in WNW 14.0 mph 24.0 mph 79 % 0.00 in 295 W/m2
08:50 55.9 °F 49.5 °F 29.58 in WNW 15.0 mph 24.0 mph 79 % 0.00 in 306 W/m2
08:55 56.1 °F 49.7 °F 29.58 in WNW 14.0 mph 23.0 mph 79 % 0.00 in 325 W/m2
09:00 56.5 °F 50.0 °F 29.58 in WNW 14.0 mph 22.0 mph 79 % 0.00 in 336 W/m2
09:05 56.7 °F 49.9 °F 29.58 in WNW 15.0 mph 22.0 mph 78 % 0.00 in 350 W/m2
09:10 56.7 °F 49.9 °F 29.58 in WNW 15.0 mph 25.0 mph 78 % 0.00 in 329 W/m2
09:15 56.7 °F 49.9 °F 29.59 in WNW 15.0 mph 25.0 mph 78 % 0.00 in 380 W/m2
09:20 56.8 °F 49.7 °F 29.59 in WNW 15.0 mph 29.0 mph 77 % 0.00 in 396 W/m2
09:25 57.2 °F 50.1 °F 29.59 in WNW 14.0 mph 29.0 mph 77 % 0.00 in 406 W/m2
09:30 57.4 °F 49.9 °F 29.59 in WNW 13.0 mph 24.0 mph 76 % 0.00 in 415 W/m2
09:35 57.6 °F 50.0 °F 29.59 in West 14.0 mph 25.0 mph 76 % 0.00 in 427 W/m2
09:40 57.7 °F 50.2 °F 29.59 in West 13.0 mph 25.0 mph 76 % 0.00 in 441 W/m2
09:45 58.1 °F 50.2 °F 29.60 in West 11.0 mph 24.0 mph 75 % 0.00 in 483 W/m2
09:50 58.3 °F 50.0 °F 29.60 in West 11.0 mph 21.0 mph 74 % 0.00 in 512 W/m2
09:55 58.6 °F 50.4 °F 29.60 in West 11.0 mph 21.0 mph 74 % 0.00 in 522 W/m2
09:59 59.2 °F 50.5 °F 29.60 in West 11.0 mph 23.0 mph 73 % 0.00 in 554 W/m2
10:04 59.0 °F 50.4 °F 29.60 in West 11.0 mph 23.0 mph 73 % 0.00 in 197 W/m2
10:09 58.6 °F 49.6 °F 29.60 in WNW 14.0 mph 23.0 mph 72 % 0.00 in 552 W/m2
10:14 58.8 °F 50.2 °F 29.60 in WNW 14.0 mph 23.0 mph 73 % 0.00 in 592 W/m2
10:19 58.6 °F 50.0 °F 29.60 in West 14.0 mph 26.0 mph 73 % 0.00 in 631 W/m2
10:24 58.6 °F 50.7 °F 29.60 in West 15.0 mph 27.0 mph 75 % 0.00 in 671 W/m2
10:29 58.8 °F 50.5 °F 29.60 in West 15.0 mph 27.0 mph 74 % 0.00 in 715 W/m2
10:34 59.2 °F 50.9 °F 29.60 in West 15.0 mph 26.0 mph 74 % 0.00 in 629 W/m2
10:39 59.4 °F 50.7 °F 29.60 in West 15.0 mph 26.0 mph 73 % 0.00 in 135 W/m2
10:44 58.8 °F 50.5 °F 29.60 in WNW 14.0 mph 26.0 mph 74 % 0.00 in 192 W/m2
10:49 58.3 °F 50.4 °F 29.60 in WNW 14.0 mph 26.0 mph 75 % 0.00 in 264 W/m2
10:54 58.1 °F 50.6 °F 29.60 in WNW 13.0 mph 21.0 mph 76 % 0.00 in 371 W/m2
10:59 58.1 °F 50.6 °F 29.60 in West 12.0 mph 21.0 mph 76 % 0.00 in 204 W/m2
11:04 57.7 °F 50.6 °F 29.60 in West 11.0 mph 18.0 mph 77 % 0.00 in 127 W/m2
11:09 57.0 °F 50.6 °F 29.60 in West 9.0 mph 18.0 mph 79 % 0.00 in 135 W/m2
11:14 57.4 °F 50.9 °F 29.60 in West 9.0 mph 16.0 mph 79 % 0.00 in 691 W/m2
11:19 58.3 °F 51.8 °F 29.60 in West 10.0 mph 19.0 mph 79 % 0.00 in 571 W/m2
11:24 58.6 °F 51.1 °F 29.61 in West 11.0 mph 20.0 mph 76 % 0.00 in 241 W/m2
11:29 58.8 °F 51.3 °F 29.61 in WSW 10.0 mph 20.0 mph 76 % 0.00 in 178 W/m2
11:34 59.0 °F 51.4 °F 29.61 in West 8.0 mph 14.0 mph 76 % 0.00 in 207 W/m2
11:40 59.0 °F 51.1 °F 29.61 in West 9.0 mph 19.0 mph 75 % 0.00 in 186 W/m2
11:45 58.8 °F 50.2 °F 29.62 in West 11.0 mph 19.0 mph 73 % 0.00 in 250 W/m2
11:50 58.8 °F 50.5 °F 29.62 in WSW 11.0 mph 19.0 mph 74 % 0.00 in 343 W/m2
11:55 59.4 °F 50.7 °F 29.61 in West 11.0 mph 19.0 mph 73 % 0.00 in 798 W/m2
12:00 60.1 °F 51.0 °F 29.61 in WSW 12.0 mph 27.0 mph 72 % 0.00 in 459 W/m2
12:05 59.7 °F 50.3 °F 29.62 in WSW 12.0 mph 27.0 mph 71 % 0.00 in 204 W/m2
12:10 59.5 °F 50.5 °F 29.62 in WSW 10.0 mph 20.0 mph 72 % 0.00 in 179 W/m2
12:15 59.4 °F 51.1 °F 29.62 in WSW 8.0 mph 15.0 mph 74 % 0.00 in 199 W/m2
12:20 59.2 °F 50.5 °F 29.62 in WSW 8.0 mph 16.0 mph 73 % 0.00 in 162 W/m2
12:25 59.0 °F 50.4 °F 29.63 in West 9.0 mph 18.0 mph 73 % 0.00 in 128 W/m2
12:30 58.8 °F 50.2 °F 29.63 in West 9.0 mph 19.0 mph 73 % 0.00 in 269 W/m2
12:35 58.8 °F 50.5 °F 29.63 in WSW 9.0 mph 19.0 mph 74 % 0.00 in 872 W/m2
12:40 59.2 °F 51.3 °F 29.62 in WSW 9.0 mph 15.0 mph 75 % 0.00 in 872 W/m2
12:45 59.7 °F 50.7 °F 29.62 in SW 10.0 mph 18.0 mph 72 % 0.00 in 279 W/m2
12:50 59.7 °F 50.7 °F 29.62 in WSW 10.0 mph 20.0 mph 72 % 0.00 in 181 W/m2
12:55 59.5 °F 49.7 °F 29.63 in West 10.0 mph 20.0 mph 70 % 0.00 in 121 W/m2
13:00 59.2 °F 48.6 °F 29.63 in WSW 11.0 mph 22.0 mph 68 % 0.00 in 165 W/m2
13:05 58.8 °F 48.3 °F 29.63 in WSW 13.0 mph 22.0 mph 68 % 0.00 in 148 W/m2
13:10 58.6 °F 48.1 °F 29.63 in WSW 13.0 mph 22.0 mph 68 % 0.00 in 113 W/m2
13:15 58.5 °F 48.3 °F 29.63 in West 12.0 mph 20.0 mph 69 % 0.00 in 104 W/m2
13:20 58.3 °F 48.5 °F 29.62 in WSW 10.0 mph 20.0 mph 70 % 0.00 in 120 W/m2
13:21 58.3 °F 48.5 °F 29.63 in WSW 10.0 mph 20.0 mph 70 % 0.00 in 128 W/m2
13:25 58.1 °F 48.7 °F 29.62 in WSW 10.0 mph 20.0 mph 71 % 0.00 in 130 W/m2
13:30 57.9 °F 48.6 °F 29.62 in WSW 11.0 mph 22.0 mph 71 % 0.00 in 207 W/m2
13:35 58.1 °F 48.7 °F 29.62 in WSW 11.0 mph 22.0 mph 71 % 0.00 in 197 W/m2
13:40 58.5 °F 49.1 °F 29.62 in West 9.0 mph 18.0 mph 71 % 0.00 in 199 W/m2
13:45 58.8 °F 49.1 °F 29.62 in WSW 8.0 mph 15.0 mph 70 % 0.00 in 156 W/m2
13:50 58.8 °F 48.7 °F 29.62 in WSW 9.0 mph 16.0 mph 69 % 0.00 in 220 W/m2
13:55 59.0 °F 48.8 °F 29.62 in WSW 10.0 mph 16.0 mph 69 % 0.00 in 190 W/m2
14:00 59.2 °F 48.6 °F 29.62 in WSW 9.0 mph 14.0 mph 68 % 0.00 in 134 W/m2
14:05 59.2 °F 49.0 °F 29.62 in WSW 8.0 mph 14.0 mph 69 % 0.00 in 139 W/m2
14:10 59.2 °F 49.4 °F 29.62 in West 8.0 mph 14.0 mph 70 % 0.00 in 123 W/m2
14:15 59.2 °F 49.4 °F 29.62 in West 7.0 mph 11.0 mph 70 % 0.00 in 76 W/m2
14:20 58.8 °F 48.7 °F 29.62 in West 7.0 mph 13.0 mph 69 % 0.00 in 70 W/m2
14:26 58.8 °F 49.4 °F 29.62 in West 7.0 mph 13.0 mph 71 % 0.00 in 84 W/m2
14:31 58.6 °F 49.3 °F 29.61 in West 8.0 mph 13.0 mph 71 % 0.00 in 162 W/m2
14:36 58.5 °F 49.1 °F 29.61 in West 8.0 mph 13.0 mph 71 % 0.00 in 176 W/m2
14:41 58.5 °F 49.5 °F 29.60 in West 7.0 mph 12.0 mph 72 % 0.00 in 118 W/m2
14:46 58.5 °F 49.5 °F 29.61 in West 6.0 mph 12.0 mph 72 % 0.00 in 79 W/m2
14:51 58.5 °F 49.5 °F 29.60 in WSW 6.0 mph 11.0 mph 72 % 0.00 in 56 W/m2
14:56 58.3 °F 49.3 °F 29.60 in West 6.0 mph 10.0 mph 72 % 0.00 in 65 W/m2
15:01 58.3 °F 49.7 °F 29.60 in West 6.0 mph 10.0 mph 73 % 0.00 in 176 W/m2
15:06 58.5 °F 49.8 °F 29.60 in West 6.0 mph 10.0 mph 73 % 0.00 in 239 W/m2
15:11 58.6 °F 50.0 °F 29.60 in West 6.0 mph 9.0 mph 73 % 0.00 in 142 W/m2
15:16 58.8 °F 49.8 °F 29.60 in West 6.0 mph 12.0 mph 72 % 0.00 in 84 W/m2
15:21 58.8 °F 49.8 °F 29.60 in West 6.0 mph 12.0 mph 72 % 0.00 in 120 W/m2
15:26 59.0 °F 50.0 °F 29.60 in WSW 6.0 mph 12.0 mph 72 % 0.00 in 255 W/m2
15:31 59.4 °F 50.7 °F 29.60 in SW 6.0 mph 12.0 mph 73 % 0.00 in 563 W/m2
15:36 60.3 °F 50.4 °F 29.60 in WSW 5.0 mph 11.0 mph 70 % 0.00 in 267 W/m2
15:41 60.8 °F 49.8 °F 29.60 in WSW 6.0 mph 11.0 mph 67 % 0.00 in 285 W/m2
15:44 60.8 °F 49.4 °F 29.59 in WSW 8.0 mph 15.0 mph 66 % 0.00 in 422 W/m2
15:49 61.0 °F 49.1 °F 29.59 in WSW 9.0 mph 15.0 mph 65 % 0.00 in 207 W/m2
15:54 61.0 °F 48.7 °F 29.59 in WSW 8.0 mph 15.0 mph 64 % 0.00 in 225 W/m2
15:59 60.8 °F 48.5 °F 29.59 in WSW 6.0 mph 13.0 mph 64 % 0.00 in 239 W/m2
16:04 60.4 °F 47.8 °F 29.58 in WSW 9.0 mph 18.0 mph 63 % 0.00 in 144 W/m2
16:09 60.3 °F 47.6 °F 29.58 in WSW 11.0 mph 18.0 mph 63 % 0.00 in 160 W/m2
16:14 60.1 °F 47.4 °F 29.58 in WSW 10.0 mph 18.0 mph 63 % 0.00 in 185 W/m2
16:19 60.1 °F 47.9 °F 29.57 in WSW 9.0 mph 18.0 mph 64 % 0.00 in 214 W/m2
16:24 60.3 °F 48.0 °F 29.57 in WSW 9.0 mph 18.0 mph 64 % 0.00 in 174 W/m2
16:29 60.1 °F 47.9 °F 29.57 in WSW 9.0 mph 19.0 mph 64 % 0.00 in 100 W/m2
16:34 60.1 °F 47.9 °F 29.57 in WSW 9.0 mph 19.0 mph 64 % 0.00 in 83 W/m2
16:39 59.7 °F 47.5 °F 29.58 in WSW 9.0 mph 16.0 mph 64 % 0.00 in 95 W/m2
16:44 59.7 °F 47.9 °F 29.57 in WSW 8.0 mph 14.0 mph 65 % 0.00 in 74 W/m2
16:49 59.5 °F 48.2 °F 29.57 in WSW 7.0 mph 13.0 mph 66 % 0.00 in 113 W/m2
16:54 59.4 °F 48.0 °F 29.56 in WSW 8.0 mph 18.0 mph 66 % 0.00 in 104 W/m2
16:59 59.2 °F 48.2 °F 29.56 in WSW 7.0 mph 18.0 mph 67 % 0.00 in 86 W/m2
17:04 59.2 °F 48.2 °F 29.56 in WSW 6.0 mph 10.0 mph 67 % 0.00 in 83 W/m2
17:09 58.8 °F 47.9 °F 29.55 in SW 7.0 mph 14.0 mph 67 % 0.00 in 81 W/m2
17:14 58.8 °F 48.3 °F 29.55 in SW 7.0 mph 14.0 mph 68 % 0.00 in 46 W/m2
17:19 58.6 °F 48.5 °F 29.55 in SSW 7.0 mph 16.0 mph 69 % 0.00 in 35 W/m2
17:24 58.3 °F 48.5 °F 29.55 in SSW 9.0 mph 16.0 mph 70 % 0.00 in 35 W/m2
17:29 58.1 °F 48.4 °F 29.54 in SW 9.0 mph 18.0 mph 70 % 0.00 in 63 W/m2
17:34 57.9 °F 48.6 °F 29.54 in SW 9.0 mph 18.0 mph 71 % 0.00 in 46 W/m2
17:39 57.7 °F 48.8 °F 29.53 in SW 7.0 mph 13.0 mph 72 % 0.00 in 30 W/m2
17:45 57.6 °F 48.6 °F 29.52 in SSW 6.0 mph 12.0 mph 72 % 0.00 in 30 W/m2
17:50 57.6 °F 48.6 °F 29.52 in SSW 6.0 mph 15.0 mph 72 % 0.00 in 44 W/m2
17:55 57.4 °F 48.4 °F 29.52 in SW 7.0 mph 15.0 mph 72 % 0.00 in 56 W/m2
18:00 57.2 °F 48.3 °F 29.52 in SW 8.0 mph 13.0 mph 72 % 0.00 in 54 W/m2
18:05 57.2 °F 48.3 °F 29.51 in SSW 7.0 mph 12.0 mph 72 % 0.00 in 37 W/m2
18:10 57.0 °F 48.4 °F 29.50 in SSW 6.0 mph 11.0 mph 73 % 0.00 in 51 W/m2
18:15 57.0 °F 48.4 °F 29.50 in SSW 4.0 mph 8.0 mph 73 % 0.00 in 49 W/m2
18:20 57.0 °F 48.4 °F 29.50 in South 4.0 mph 10.0 mph 73 % 0.00 in 40 W/m2
18:25 57.0 °F 48.4 °F 29.49 in South 5.0 mph 11.0 mph 73 % 0.00 in 21 W/m2
18:30 57.0 °F 48.4 °F 29.49 in South 5.0 mph 11.0 mph 73 % 0.00 in 16 W/m2
18:35 56.8 °F 48.3 °F 29.49 in South 4.0 mph 10.0 mph 73 % 0.00 in 9 W/m2
18:40 56.8 °F 48.3 °F 29.49 in South 3.0 mph 8.0 mph 73 % 0.00 in 9 W/m2
18:45 56.8 °F 48.3 °F 29.49 in SSW 4.0 mph 13.0 mph 73 % 0.00 in 9 W/m2
18:50 56.7 °F 48.1 °F 29.49 in SSW 6.0 mph 13.0 mph 73 % 0.00 in 9 W/m2
18:55 56.7 °F 48.5 °F 29.49 in SSW 5.0 mph 11.0 mph 74 % 0.00 in 7 W/m2
19:00 56.5 °F 48.3 °F 29.48 in SSW 5.0 mph 12.0 mph 74 % 0.00 in 5 W/m2
19:05 56.5 °F 48.3 °F 29.47 in SSW 5.0 mph 12.0 mph 74 % 0.00 in 12 W/m2
19:10 56.5 °F 48.3 °F 29.46 in SSW 4.0 mph 8.0 mph 74 % 0.00 in 11 W/m2
19:15 56.5 °F 49.0 °F 29.46 in South 3.0 mph 8.0 mph 76 % 0.00 in 5 W/m2
19:20 56.3 °F 49.2 °F 29.45 in South 3.0 mph 8.0 mph 77 % 0.00 in 0 W/m2
19:25 56.1 °F 49.0 °F 29.45 in South 3.0 mph 8.0 mph 77 % 0.00 in 0 W/m2
19:30 55.9 °F 48.8 °F 29.45 in South 5.0 mph 9.0 mph 77 % 0.00 in 0 W/m2
19:35 55.9 °F 48.8 °F 29.45 in SSW 5.0 mph 9.0 mph 77 % 0.00 in 0 W/m2
19:38 55.9 °F 49.2 °F 29.45 in SSW 6.0 mph 12.0 mph 78 % 0.00 in 0 W/m2
19:43 55.9 °F 49.2 °F 29.45 in SSW 6.0 mph 12.0 mph 78 % 0.00 in 0 W/m2
19:48 55.9 °F 49.2 °F 29.44 in SSW 6.0 mph 11.0 mph 78 % 0.00 in 0 W/m2
19:53 55.9 °F 49.2 °F 29.45 in SSW 7.0 mph 13.0 mph 78 % 0.00 in 0 W/m2
19:58 55.8 °F 49.7 °F 29.44 in SSW 7.0 mph 13.0 mph 80 % 0.00 in 0 W/m2
20:03 55.6 °F 49.8 °F 29.44 in SSW 5.0 mph 9.0 mph 81 % 0.01 in 0 W/m2
20:08 55.2 °F 50.1 °F 29.44 in SSW 5.0 mph 9.0 mph 83 % 0.02 in 0 W/m2
20:13 55.0 °F 50.3 °F 29.44 in SSW 4.0 mph 9.0 mph 84 % 0.02 in 0 W/m2
20:18 54.7 °F 50.3 °F 29.44 in South 5.0 mph 10.0 mph 85 % 0.02 in 0 W/m2
20:23 54.5 °F 50.4 °F 29.43 in South 6.0 mph 11.0 mph 86 % 0.02 in 0 W/m2
20:24 54.3 °F 50.2 °F 29.43 in South 6.0 mph 11.0 mph 86 % 0.02 in 0 W/m2
20:29 54.1 °F 50.4 °F 29.42 in South 4.0 mph 11.0 mph 87 % 0.02 in 0 W/m2
20:34 54.1 °F 50.4 °F 29.42 in South 4.0 mph 10.0 mph 87 % 0.02 in 0 W/m2
20:39 54.0 °F 50.5 °F 29.42 in South 5.0 mph 11.0 mph 88 % 0.02 in 0 W/m2
20:44 53.8 °F 50.3 °F 29.41 in SSE 6.0 mph 12.0 mph 88 % 0.03 in 0 W/m2
20:49 53.6 °F 50.1 °F 29.40 in SSE 6.0 mph 12.0 mph 88 % 0.03 in 0 W/m2
20:54 53.4 °F 50.0 °F 29.40 in SSE 6.0 mph 13.0 mph 88 % 0.03 in 0 W/m2
20:59 53.4 °F 50.3 °F 29.38 in SSE 7.0 mph 13.0 mph 89 % 0.03 in 0 W/m2
21:04 53.2 °F 50.1 °F 29.38 in SSE 5.0 mph 10.0 mph 89 % 0.02 in 0 W/m2
21:09 53.1 °F 49.9 °F 29.38 in South 4.0 mph 8.0 mph 89 % 0.02 in 0 W/m2
21:14 53.1 °F 49.9 °F 29.36 in SSE 4.0 mph 8.0 mph 89 % 0.02 in 0 W/m2
21:19 53.1 °F 50.2 °F 29.36 in SE 4.0 mph 8.0 mph 90 % 0.02 in 0 W/m2
21:29 52.7 °F 49.8 °F 29.34 in SE 6.0 mph 11.0 mph 90 % 0.03 in 0 W/m2
21:34 52.5 °F 50.0 °F 29.34 in SE 7.0 mph 14.0 mph 91 % 0.03 in 0 W/m2
21:39 52.3 °F 49.8 °F 29.33 in SE 8.0 mph 14.0 mph 91 % 0.03 in 0 W/m2
21:44 52.2 °F 49.9 °F 29.32 in SE 8.0 mph 14.0 mph 92 % 0.03 in 0 W/m2
21:49 52.0 °F 49.7 °F 29.31 in SE 8.0 mph 14.0 mph 92 % 0.03 in 0 W/m2
21:54 52.0 °F 50.0 °F 29.30 in SE 9.0 mph 18.0 mph 93 % 0.04 in 0 W/m2
21:59 51.8 °F 49.8 °F 29.30 in SE 11.0 mph 20.0 mph 93 % 0.05 in 0 W/m2
22:04 51.8 °F 49.8 °F 29.28 in SE 11.0 mph 20.0 mph 93 % 0.05 in 0 W/m2
22:09 51.6 °F 49.7 °F 29.27 in SE 11.0 mph 20.0 mph 93 % 0.06 in 0 W/m2
22:14 51.6 °F 49.9 °F 29.26 in SSE 11.0 mph 19.0 mph 94 % 0.06 in 0 W/m2
22:19 51.6 °F 49.9 °F 29.26 in SSE 10.0 mph 19.0 mph 94 % 0.06 in 0 W/m2
22:24 51.6 °F 49.9 °F 29.25 in SSE 12.0 mph 22.0 mph 94 % 0.06 in 0 W/m2
22:29 51.4 °F 49.8 °F 29.24 in SSE 13.0 mph 22.0 mph 94 % 0.05 in 0 W/m2
22:35 51.4 °F 49.8 °F 29.24 in SSE 13.0 mph 24.0 mph 94 % 0.05 in 0 W/m2
22:40 51.4 °F 50.1 °F 29.23 in SSE 12.0 mph 24.0 mph 95 % 0.05 in 0 W/m2
22:45 51.6 °F 50.2 °F 29.22 in SSE 14.0 mph 23.0 mph 95 % 0.05 in 0 W/m2
22:50 51.6 °F 50.2 °F 29.22 in SSE 13.0 mph 23.0 mph 95 % 0.05 in 0 W/m2
22:55 51.6 °F 50.2 °F 29.21 in SSE 10.0 mph 18.0 mph 95 % 0.04 in 0 W/m2
23:00 51.8 °F 50.4 °F 29.20 in SSE 10.0 mph 18.0 mph 95 % 0.03 in 0 W/m2
23:05 51.8 °F 50.4 °F 29.20 in SSE 10.0 mph 18.0 mph 95 % 0.03 in 0 W/m2
23:10 52.0 °F 50.6 °F 29.19 in SSE 10.0 mph 19.0 mph 95 % 0.02 in 0 W/m2
23:15 52.0 °F 50.6 °F 29.19 in SSE 10.0 mph 20.0 mph 95 % 0.02 in 0 W/m2
23:20 52.0 °F 50.6 °F 29.18 in South 10.0 mph 20.0 mph 95 % 0.02 in 0 W/m2
23:25 52.0 °F 50.6 °F 29.17 in South 9.0 mph 19.0 mph 95 % 0.01 in 0 W/m2
23:30 52.2 °F 50.8 °F 29.17 in South 9.0 mph 18.0 mph 95 % 0.01 in 0 W/m2
23:35 52.2 °F 50.8 °F 29.16 in South 9.0 mph 18.0 mph 95 % 0.01 in 0 W/m2
23:40 52.2 °F 50.8 °F 29.16 in South 9.0 mph 18.0 mph 95 % 0.00 in 0 W/m2
23:45 52.2 °F 50.8 °F 29.15 in South 7.0 mph 15.0 mph 95 % 0.00 in 0 W/m2
23:50 52.3 °F 51.0 °F 29.15 in South 7.0 mph 14.0 mph 95 % 0.00 in 0 W/m2
23:55 52.3 °F 51.2 °F 29.14 in South 6.0 mph 14.0 mph 96 % 0.00 in 0 W/m2
Delerius-Weather
Compliments of Weather Underground - 2.25 mb

Data updates at regular intervals.